createdAt,value
2023-04-02T09:35:53.322Z,98576.41
2023-04-02T09:38:28.883Z,98580.69
2023-04-02T09:41:05.260Z,98579.88
2023-04-02T09:43:37.445Z,98584.88
2023-04-02T09:46:14.005Z,98580.38
2023-04-02T09:48:45.649Z,98589.50
2023-04-02T09:51:18.300Z,98585.75
2023-04-02T09:54:15.982Z,98593.06
2023-04-02T09:57:04.334Z,98593.38
2023-04-02T09:59:31.963Z,98599.28
2023-04-02T10:02:03.276Z,98606.19
2023-04-02T10:04:47.979Z,98598.94
2023-04-02T10:07:42.173Z,98609.63
2023-04-02T10:10:44.692Z,98609.03
2023-04-02T10:13:46.446Z,98610.59
2023-04-02T10:16:37.745Z,98618.66
2023-04-02T10:19:34.782Z,98624.84
2023-04-02T10:22:20.943Z,98617.56
2023-04-02T10:24:49.922Z,98622.94
2023-04-02T10:27:37.973Z,98626.94
2023-04-02T10:30:11.499Z,98621.03
2023-04-02T10:33:23.193Z,98628.13
2023-04-02T10:36:37.545Z,98629.22
2023-04-02T10:39:33.855Z,98627.34
2023-04-02T10:42:22.745Z,98629.25
2023-04-02T10:45:28.469Z,98635.94
2023-04-02T10:48:20.781Z,98629.16
2023-04-02T10:51:11.917Z,98631.22
2023-04-02T10:54:02.940Z,98641.19
2023-04-02T10:56:44.228Z,98639.25
2023-04-02T10:59:33.292Z,98650.88
2023-04-02T11:02:15.152Z,98648.38
2023-04-02T11:04:46.458Z,98650.16
2023-04-02T11:07:27.546Z,98655.22
2023-04-02T11:09:58.239Z,98662.00
2023-04-02T11:12:55.935Z,98658.94
2023-04-02T11:15:26.183Z,98658.31
2023-04-02T11:17:54.663Z,98668.16
2023-04-02T11:20:49.090Z,98669.28
2023-04-02T11:23:20.900Z,98663.19
2023-04-02T11:25:48.698Z,98664.41
2023-04-02T11:28:31.840Z,98664.97
2023-04-02T11:31:00.236Z,98677.88
2023-04-02T11:33:44.074Z,98676.75
2023-04-02T11:36:50.740Z,98676.75
2023-04-02T11:39:51.433Z,98680.50
2023-04-02T11:42:19.034Z,98684.16
2023-04-02T11:44:46.655Z,98691.06
2023-04-02T11:47:25.738Z,98686.56
2023-04-02T11:50:01.252Z,98688.72
2023-04-02T11:52:51.075Z,98690.25
2023-04-02T11:55:27.346Z,98688.53
2023-04-02T11:58:32.822Z,98690.81
2023-04-02T12:01:09.211Z,98694.28
2023-04-02T12:03:52.984Z,98695.81
2023-04-02T12:06:46.694Z,98694.28
2023-04-02T12:09:24.982Z,98695.78
2023-04-02T12:12:02.632Z,98700.72
2023-04-02T12:14:33.158Z,98708.31
2023-04-02T12:17:01.491Z,98709.06
2023-04-02T12:19:31.967Z,98712.66
2023-04-02T12:22:00.544Z,98710.34
2023-04-02T12:24:31.270Z,98717.09
2023-04-02T12:27:24.370Z,98716.84
2023-04-02T12:30:19.059Z,98709.31
2023-04-02T12:33:15.917Z,98722.91
2023-04-02T12:35:45.588Z,98718.09
2023-04-02T12:38:23.662Z,98723.81
2023-04-02T12:41:01.995Z,98723.72
2023-04-02T12:43:33.808Z,98728.84
2023-04-02T12:46:05.917Z,98729.59
2023-04-02T12:48:35.970Z,98738.22
2023-04-02T12:51:04.831Z,98735.69
2023-04-02T12:53:40.439Z,98735.91
2023-04-02T12:56:21.642Z,98736.78
2023-04-02T12:59:00.614Z,98733.50
2023-04-02T13:01:33.926Z,98734.53
2023-04-02T13:04:14.885Z,98735.06
2023-04-02T13:06:52.133Z,98735.31
2023-04-02T13:09:35.814Z,98739.63
2023-04-02T13:12:03.939Z,98741.00
2023-04-02T13:14:31.563Z,98732.66
2023-04-02T13:16:58.747Z,98744.59
2023-04-02T13:19:33.987Z,98745.25
2023-04-02T13:22:04.157Z,98745.72
2023-04-02T13:24:33.778Z,98749.56
2023-04-02T13:27:03.535Z,98744.59
2023-04-02T13:29:35.112Z,98744.81
2023-04-02T13:32:12.254Z,98757.09
2023-04-02T13:34:39.338Z,98752.75
2023-04-02T13:37:06.467Z,98750.88
2023-04-02T13:39:33.587Z,98751.66
2023-04-02T13:42:04.424Z,98760.53
2023-04-02T13:44:34.743Z,98765.31
2023-04-02T13:47:01.932Z,98768.66
2023-04-02T13:49:31.087Z,98765.56
2023-04-02T13:52:03.163Z,98774.34
2023-04-02T13:54:55.226Z,98771.63
2023-04-02T13:57:22.485Z,98776.38
2023-04-02T13:59:49.819Z,98777.84
2023-04-02T14:02:25.202Z,98784.81
2023-04-02T14:05:55.525Z,98790.34
2023-04-02T14:08:37.760Z,98790.06
2023-04-02T14:11:52.175Z,98801.47
2023-04-02T14:14:48.107Z,98802.25
2023-04-02T14:18:33.028Z,98805.63
2023-04-02T14:21:27.647Z,98803.78
2023-04-02T14:24:41.479Z,98814.22
2023-04-02T14:28:00.693Z,98817.84
2023-04-02T14:31:07.006Z,98825.00
2023-04-02T14:33:49.309Z,98825.41
2023-04-02T14:36:24.991Z,98822.53
2023-04-02T14:39:17.735Z,98824.94
2023-04-02T14:42:04.454Z,98828.94
2023-04-02T14:44:43.894Z,98837.28
2023-04-02T14:47:46.556Z,98833.44
2023-04-02T14:50:34.944Z,98843.13
2023-04-02T14:53:19.941Z,98842.09
2023-04-02T14:55:52.375Z,98832.28
2023-04-02T14:58:40.943Z,98842.53
2023-04-02T15:01:21.848Z,98844.63
2023-04-02T15:04:06.099Z,98845.66
2023-04-02T15:06:50.649Z,98848.28
2023-04-02T15:09:32.290Z,98857.19
2023-04-02T15:12:23.024Z,98854.72
2023-04-02T15:15:44.800Z,98859.44
2023-04-02T15:18:17.117Z,98857.19
2023-04-02T15:21:20.514Z,98861.53
2023-04-02T15:24:47.799Z,98876.44
2023-04-02T15:27:51.360Z,98881.84
2023-04-02T15:30:25.612Z,98886.41
2023-04-02T15:33:30.020Z,98899.00
2023-04-02T15:36:29.469Z,98899.69
2023-04-02T15:39:22.039Z,98899.88
2023-04-02T15:42:19.066Z,98905.47
2023-04-02T15:45:12.731Z,98913.00
2023-04-02T15:48:23.785Z,98915.75
2023-04-02T15:51:37.009Z,98922.03
2023-04-02T15:54:26.896Z,98931.84
2023-04-02T15:57:23.154Z,98934.34
2023-04-02T16:00:30.774Z,98935.31
2023-04-02T16:03:29.903Z,98951.47
2023-04-02T16:06:32.413Z,98941.88
2023-04-02T16:09:24.363Z,98951.38
2023-04-02T16:12:19.043Z,98954.25
2023-04-02T16:14:49.581Z,98958.06
2023-04-02T16:17:31.197Z,98966.75
2023-04-02T16:20:27.373Z,98959.13
2023-04-02T16:23:11.566Z,98970.84
2023-04-02T16:26:02.595Z,98971.97
2023-04-02T16:28:40.306Z,98979.63
2023-04-02T16:31:32.081Z,98976.63
2023-04-02T16:34:44.085Z,98991.38
2023-04-02T16:37:32.250Z,98984.81
2023-04-02T16:40:25.588Z,99001.50
2023-04-02T16:43:25.416Z,99012.63
2023-04-02T16:46:35.871Z,99018.28
2023-04-02T16:50:01.601Z,99025.63
2023-04-02T16:53:03.413Z,99021.19
2023-04-02T16:56:07.289Z,99018.19
2023-04-02T16:59:11.883Z,99034.38
2023-04-02T17:02:02.894Z,99046.13
2023-04-02T17:04:54.581Z,99049.28
2023-04-02T17:07:42.570Z,99055.47
2023-04-02T17:11:01.896Z,99050.09
2023-04-02T17:13:46.377Z,99055.44
2023-04-02T17:16:45.496Z,99058.72
2023-04-02T17:19:17.441Z,99070.09
2023-04-02T17:21:52.254Z,99066.31
2023-04-02T17:24:28.453Z,99075.06
2023-04-02T17:27:07.257Z,99083.66
2023-04-02T17:29:43.720Z,99096.16
2023-04-02T17:32:33.724Z,99100.22
2023-04-02T17:35:53.825Z,99103.16
2023-04-02T17:38:51.299Z,99109.84
2023-04-02T17:41:43.720Z,99124.63
2023-04-02T17:45:11.376Z,99125.28
2023-04-02T17:48:00.552Z,99135.25
2023-04-02T17:50:49.141Z,99143.03
2023-04-02T17:53:53.036Z,99150.72
2023-04-02T17:56:59.690Z,99158.56
2023-04-02T18:00:14.253Z,99173.81
2023-04-02T18:03:22.266Z,99171.34
2023-04-02T18:06:07.127Z,99179.19
2023-04-02T18:09:04.402Z,99181.59
2023-04-02T18:12:29.754Z,99187.69
2023-04-02T18:15:55.806Z,99188.13
2023-04-02T18:18:49.990Z,99189.69
2023-04-02T18:22:13.946Z,99200.03
2023-04-02T18:25:24.656Z,99213.75
2023-04-02T18:28:19.312Z,99218.00
2023-04-02T18:31:27.151Z,99227.66
2023-04-02T18:34:22.064Z,99233.72
2023-04-02T18:37:43.495Z,99246.00
2023-04-02T18:40:19.957Z,99251.84
2023-04-02T18:42:58.643Z,99254.25
2023-04-02T18:45:56.300Z,99262.84
2023-04-02T18:48:53.679Z,99278.47
2023-04-02T18:51:25.127Z,99288.34
2023-04-02T18:54:14.479Z,99283.41
2023-04-02T18:56:42.761Z,99301.16
2023-04-02T18:59:34.277Z,99295.44
2023-04-02T19:02:28.377Z,99304.28
2023-04-02T19:05:13.018Z,99321.00
2023-04-02T19:07:43.577Z,99325.59
2023-04-02T19:10:35.572Z,99324.47
2023-04-02T19:13:08.120Z,99331.50
2023-04-02T19:16:14.449Z,99334.03
2023-04-02T19:19:14.201Z,99330.13
2023-04-02T19:21:51.439Z,99346.34
2023-04-02T19:24:46.890Z,99344.00
2023-04-02T19:27:51.442Z,99349.69
2023-04-02T19:30:37.951Z,99353.94
2023-04-02T19:33:37.920Z,99359.22
2023-04-02T19:36:38.726Z,99358.16
2023-04-02T19:39:46.921Z,99376.41
2023-04-02T19:42:39.003Z,99384.09
2023-04-02T19:45:19.952Z,99393.13
2023-04-02T19:47:48.336Z,99389.66
2023-04-02T19:50:16.163Z,99399.72
2023-04-02T19:52:43.867Z,99399.94
2023-04-02T19:55:12.277Z,99402.78
2023-04-02T19:57:40.256Z,99404.88
2023-04-02T20:00:10.782Z,99416.22
2023-04-02T20:02:39.827Z,99401.72
2023-04-02T20:05:10.827Z,99404.44
2023-04-02T20:07:38.842Z,99411.56
2023-04-02T20:10:07.997Z,99419.69
2023-04-02T20:12:35.942Z,99415.47
2023-04-02T20:15:07.370Z,99420.44
2023-04-02T20:17:35.048Z,99430.84
2023-04-02T20:20:02.897Z,99429.03
2023-04-02T20:22:30.499Z,99423.91
2023-04-02T20:24:58.116Z,99425.53
2023-04-02T20:27:25.841Z,99439.13
2023-04-02T20:29:56.021Z,99433.13
2023-04-02T20:32:24.442Z,99434.53
2023-04-02T20:34:53.194Z,99439.06
2023-04-02T20:37:21.485Z,99439.97
2023-04-02T20:39:49.147Z,99449.25
2023-04-02T20:42:16.836Z,99451.13
2023-04-02T20:44:44.469Z,99458.00
2023-04-02T20:47:12.134Z,99464.66
2023-04-02T20:49:39.703Z,99466.56
2023-04-02T20:52:07.406Z,99474.13
2023-04-02T20:54:35.036Z,99476.31
2023-04-02T20:57:07.761Z,99483.56
2023-04-02T20:59:35.299Z,99478.84
2023-04-02T21:02:02.482Z,99488.34
2023-04-02T21:04:29.729Z,99487.41
2023-04-02T21:06:57.473Z,99482.28
2023-04-02T21:09:25.123Z,99495.06
2023-04-02T21:11:52.321Z,99514.09
2023-04-02T21:14:19.590Z,99501.91
2023-04-02T21:16:46.758Z,99497.50
2023-04-02T21:19:13.929Z,99503.94
2023-04-02T21:21:41.357Z,99507.94
2023-04-02T21:24:18.046Z,99504.13
2023-04-02T21:26:52.459Z,99502.03
2023-04-02T21:29:20.434Z,99506.38
2023-04-02T21:31:49.319Z,99507.69
2023-04-02T21:34:17.397Z,99516.59
2023-04-02T21:36:48.798Z,99509.31
2023-04-02T21:39:24.135Z,99512.06
2023-04-02T21:41:54.774Z,99515.47
2023-04-02T21:44:24.392Z,99520.22
2023-04-02T21:46:54.090Z,99523.94
2023-04-02T21:49:23.543Z,99518.78
2023-04-02T21:51:54.096Z,99518.31
2023-04-02T21:54:21.707Z,99529.94
2023-04-02T21:56:49.869Z,99536.22
2023-04-02T21:59:18.661Z,99533.63
2023-04-02T22:01:52.073Z,99533.13
2023-04-02T22:04:25.961Z,99546.00
2023-04-02T22:06:54.193Z,99541.03
2023-04-02T22:09:26.583Z,99551.59
2023-04-02T22:12:01.463Z,99552.19
2023-04-02T22:14:30.242Z,99553.66
2023-04-02T22:17:00.788Z,99555.13
2023-04-02T22:19:28.638Z,99552.31
2023-04-02T22:21:56.730Z,99559.56
2023-04-02T22:24:24.984Z,99560.97
2023-04-02T22:26:52.722Z,99562.47
2023-04-02T22:29:19.853Z,99556.94
2023-04-02T22:31:47.658Z,99568.81
2023-04-02T22:34:15.630Z,99563.25
2023-04-02T22:36:43.389Z,99567.50
2023-04-02T22:39:12.650Z,99564.00
2023-04-02T22:41:40.365Z,99567.63
2023-04-02T22:44:07.857Z,99576.22
2023-04-02T22:46:35.246Z,99568.03
2023-04-02T22:49:03.125Z,99558.69
2023-04-02T22:51:30.630Z,99558.69
2023-04-02T22:53:58.084Z,99570.09
2023-04-02T22:56:31.895Z,99573.28
2023-04-02T22:58:59.838Z,99572.47
2023-04-02T23:01:35.384Z,99577.50
2023-04-02T23:04:04.817Z,99572.13
2023-04-02T23:06:32.978Z,99571.72
2023-04-02T23:09:00.489Z,99574.84
2023-04-02T23:11:28.432Z,99564.28
2023-04-02T23:13:58.231Z,99560.44
2023-04-02T23:16:28.471Z,99564.13
2023-04-02T23:18:57.710Z,99565.69
2023-04-02T23:21:26.236Z,99566.03
2023-04-02T23:23:54.520Z,99575.84
2023-04-02T23:26:32.261Z,99564.78
2023-04-02T23:29:02.500Z,99561.53
2023-04-02T23:31:29.965Z,99566.59
2023-04-02T23:33:58.007Z,99560.94
2023-04-02T23:36:31.889Z,99566.16
2023-04-02T23:39:09.232Z,99570.50
2023-04-02T23:41:40.882Z,99561.06
2023-04-02T23:44:09.590Z,99570.75
2023-04-02T23:46:37.271Z,99553.59
2023-04-02T23:49:04.541Z,99556.63
2023-04-02T23:51:32.443Z,99554.16
2023-04-02T23:54:00.238Z,99557.66
2023-04-02T23:56:28.101Z,99555.78
2023-04-02T23:58:55.388Z,99556.63
